Time;durP1;ratioP1;P1;durP2;ratioP2;P2;SDS_P1;SDS_P2;PMS_P1;PMS_P2;Temp;Humidity;BMP_temperature;BMP_pressure;BME280_temperature;BME280_humidity;BME280_pressure;Samples;Min_cycle;Max_cycle;Signal;HPM_P1;HPM_P2
2022/03/14 00:02:16;;;;;;;;;;;;;;;22.22;29.45;102541.02;104549;1308;76660;-83
2022/03/14 00:04:47;;;;;;;;;;;;;;;22.22;29.65;102542.27;104449;1311;62045;-84
2022/03/14 00:07:15;;;;;;;;;;;;;;;22.22;29.55;102544.61;104427;1311;61963;-86
2022/03/14 00:09:49;;;;;;;;;;;;;;;22.22;29.68;102546.40;104502;1310;72855;-84
2022/03/14 00:12:25;;;;;;;;;;;;;;;22.22;29.54;102549.45;104447;1310;75551;-83
2022/03/14 00:14:55;;;;;;;;;;;;;;;22.22;29.73;102544.24;104511;1308;62327;-83
2022/03/14 00:17:24;;;;;;;;;;;;;;;22.23;29.65;102545.30;104434;1310;62205;-83
2022/03/14 00:20:18;;;;;;;;;;;;;;;22.23;29.49;102547.62;104553;1308;72840;-83
2022/03/14 00:22:46;;;;;;;;;;;;;;;22.22;29.59;102545.67;103960;1317;76527;-82
2022/03/14 00:25:17;;;;;;;;;;;;;;;22.22;29.44;102548.00;103941;1316;62250;-84
2022/03/14 00:27:54;;;;;;;;;;;;;;;22.23;29.52;102547.62;103718;1319;62232;-84
2022/03/14 00:30:33;;;;;;;;;;;;;;;22.23;29.56;102550.84;103622;1316;72749;-85
2022/03/14 00:33:02;;;;;;;;;;;;;;;22.22;29.63;102556.59;104129;1316;76869;-83
2022/03/14 00:35:32;;;;;;;;;;;;;;;22.23;29.66;102557.84;104109;1316;61975;-82
2022/03/14 00:38:48;;;;;;;;;;;;;;;22.22;29.53;102550.52;104115;1316;62040;-83
2022/03/14 00:40:50;;;;;;;;;;;;;;;22.22;29.68;102559.66;104004;1316;72619;-87
2022/03/14 00:43:16;;;;;;;;;;;;;;;22.23;29.48;102557.48;104155;1316;76613;-83
2022/03/14 00:45:48;;;;;;;;;;;;;;;22.23;29.64;102559.25;104104;1316;62012;-86
2022/03/14 00:48:13;;;;;;;;;;;;;;;22.23;29.47;102560.48;104117;1316;62076;-83
2022/03/14 00:50:42;;;;;;;;;;;;;;;22.23;29.64;102561.75;104100;1316;62772;-84
2022/03/14 00:53:20;;;;;;;;;;;;;;;22.23;29.55;102562.13;104143;1316;76479;-84
2022/03/14 00:55:54;;;;;;;;;;;;;;;22.23;29.76;102560.52;104187;1316;62120;-85
2022/03/14 00:58:40;;;;;;;;;;;;;;;22.23;29.61;102561.96;104117;1316;62039;-85
2022/03/14 01:01:05;;;;;;;;;;;;;;;22.23;29.35;102560.70;104368;1311;72692;-85
2022/03/14 01:03:59;;;;;;;;;;;;;;;22.23;29.64;102562.85;103433;1319;77100;-84
2022/03/14 01:06:27;;;;;;;;;;;;;;;22.23;29.50;102564.29;103409;1320;62324;-85
2022/03/14 01:08:56;;;;;;;;;;;;;;;22.23;29.53;102566.05;103440;1319;63306;-87
2022/03/14 01:11:24;;;;;;;;;;;;;;;22.23;29.58;102566.63;103590;1319;72991;-87
2022/03/14 01:13:52;;;;;;;;;;;;;;;22.23;29.49;102569.11;103634;1319;75631;-83
2022/03/14 01:16:28;;;;;;;;;;;;;;;22.23;29.48;102568.95;103660;1319;62108;-84
2022/03/14 01:18:56;;;;;;;;;;;;;;;22.23;29.46;102566.09;103576;1319;62208;-81
2022/03/14 01:21:39;;;;;;;;;;;;;;;22.23;29.47;102568.20;103649;1319;73076;-82
2022/03/14 01:24:18;;;;;;;;;;;;;;;22.23;29.45;102570.02;103357;1319;76581;-83
2022/03/14 01:26:44;;;;;;;;;;;;;;;22.23;29.57;102573.96;103643;1319;62079;-82
2022/03/14 01:29:14;;;;;;;;;;;;;;;22.22;29.49;102571.31;103655;1319;62300;-85
2022/03/14 01:31:40;;;;;;;;;;;;;;;22.22;29.56;102572.58;103655;1319;71652;-86
2022/03/14 01:34:16;;;;;;;;;;;;;;;22.22;29.64;102572.92;103419;1319;75635;-84
2022/03/14 01:36:45;;;;;;;;;;;;;;;22.23;29.46;102578.64;103601;1319;62046;-83
2022/03/14 01:39:19;;;;;;;;;;;;;;;22.23;29.34;102579.53;103664;1318;61970;-83
2022/03/14 01:41:57;;;;;;;;;;;;;;;22.23;29.37;102581.30;104097;1311;72591;-83
2022/03/14 01:44:32;;;;;;;;;;;;;;;22.23;29.48;102577.92;104458;1310;74673;-86
2022/03/14 01:47:00;;;;;;;;;;;;;;;22.22;29.57;102576.88;104487;1309;62013;-85
2022/03/14 01:49:28;;;;;;;;;;;;;;;22.23;29.47;102582.95;104557;1308;62462;-85
2022/03/14 01:52:08;;;;;;;;;;;;;;;22.23;29.55;102585.63;104520;1308;72779;-84
2022/03/14 01:54:36;;;;;;;;;;;;;;;22.23;29.44;102584.20;104459;1309;76830;-87
2022/03/14 01:57:02;;;;;;;;;;;;;;;22.23;29.44;102586.70;104518;1308;62231;-85
2022/03/14 01:59:33;;;;;;;;;;;;;;;22.23;29.38;102590.80;104574;1308;62112;-87
2022/03/14 02:02:02;;;;;;;;;;;;;;;22.23;29.31;102592.78;104562;1308;74029;-83
2022/03/14 02:04:36;;;;;;;;;;;;;;;22.24;29.48;102595.10;104498;1309;76419;-82
2022/03/14 02:07:04;;;;;;;;;;;;;;;22.23;29.31;102601.41;104531;1308;62068;-85
2022/03/14 02:09:38;;;;;;;;;;;;;;;22.23;29.41;102605.51;104555;1308;62130;-88
2022/03/14 02:12:07;;;;;;;;;;;;;;;22.24;29.45;102611.06;104557;1308;72650;-84
2022/03/14 02:14:42;;;;;;;;;;;;;;;22.23;29.62;102609.63;104537;1308;76527;-86
2022/03/14 02:17:10;;;;;;;;;;;;;;;22.24;29.47;102611.43;104501;1309;62151;-86
2022/03/14 02:19:36;;;;;;;;;;;;;;;22.24;29.42;102614.12;104427;1309;62239;-88
2022/03/14 02:22:14;;;;;;;;;;;;;;;22.23;29.52;102610.17;104525;1308;73433;-84
2022/03/14 02:24:55;;;;;;;;;;;;;;;22.24;29.55;102611.77;104524;1308;76388;-83
2022/03/14 02:27:23;;;;;;;;;;;;;;;22.24;29.44;102611.41;104456;1309;62081;-83
2022/03/14 02:29:49;;;;;;;;;;;;;;;22.24;29.47;102613.73;104470;1309;61993;-85
2022/03/14 02:32:26;;;;;;;;;;;;;;;22.24;29.48;102611.20;104507;1308;73058;-87
2022/03/14 02:34:52;;;;;;;;;;;;;;;22.24;29.40;102616.77;104549;1308;75770;-81
2022/03/14 02:37:25;;;;;;;;;;;;;;;22.25;29.42;102617.28;104553;1308;62092;-84
2022/03/14 02:40:06;;;;;;;;;;;;;;;22.25;29.34;102623.20;104559;1308;62074;-84
2022/03/14 02:42:34;;;;;;;;;;;;;;;22.24;29.46;102623.94;104358;1308;71465;-85
2022/03/14 02:45:07;;;;;;;;;;;;;;;22.25;29.39;102627.33;104467;1308;75629;-83
2022/03/14 02:47:49;;;;;;;;;;;;;;;22.25;29.56;102627.50;104450;1308;62453;-86
2022/03/14 02:50:29;;;;;;;;;;;;;;;22.25;29.43;102631.08;104537;1307;62066;-86
2022/03/14 02:52:55;;;;;;;;;;;;;;;22.25;29.50;102633.94;104443;1311;72875;-84
2022/03/14 02:55:23;;;;;;;;;;;;;;;22.25;29.64;102637.16;104475;1309;62043;-85
2022/03/14 02:57:51;;;;;;;;;;;;;;;22.25;29.45;102637.34;104556;1308;62196;-84
2022/03/14 03:00:17;;;;;;;;;;;;;;;22.26;29.39;102638.21;104467;1311;62203;-85
2022/03/14 03:02:48;;;;;;;;;;;;;;;22.25;29.53;102638.59;104416;1311;73855;-81
2022/03/14 03:05:35;;;;;;;;;;;;;;;22.26;29.44;102639.81;104441;1310;75992;-84
2022/03/14 03:08:04;;;;;;;;;;;;;;;22.26;29.31;102640.91;104456;1309;62207;-83
2022/03/14 03:10:34;;;;;;;;;;;;;;;22.26;29.41;102643.60;104445;1310;62156;-82
2022/03/14 03:13:11;;;;;;;;;;;;;;;22.26;29.34;102647.73;104529;1309;74143;-84
2022/03/14 03:15:37;;;;;;;;;;;;;;;22.26;29.52;102651.14;104546;1308;75769;-84
2022/03/14 03:18:04;;;;;;;;;;;;;;;22.26;29.49;102651.48;104379;1312;62132;-85
2022/03/14 03:20:38;;;;;;;;;;;;;;;22.25;29.47;102658.68;104484;1311;61874;-83
2022/03/14 03:23:04;;;;;;;;;;;;;;;22.26;29.62;102659.38;104475;1309;62122;-83
2022/03/14 03:25:55;;;;;;;;;;;;;;;22.25;29.50;102662.98;104443;1311;62166;-86
2022/03/14 03:28:35;;;;;;;;;;;;;;;22.25;29.50;102666.93;104169;1316;62001;-84
2022/03/14 03:31:19;;;;;;;;;;;;;;;22.26;29.35;102672.11;104157;1316;61999;-83
2022/03/14 03:33:48;;;;;;;;;;;;;;;22.26;29.65;102672.64;104094;1316;72783;-86
2022/03/14 03:36:26;;;;;;;;;;;;;;;22.26;29.53;102671.91;104108;1316;75460;-84
2022/03/14 03:38:52;;;;;;;;;;;;;;;22.26;29.55;102671.57;104179;1316;62096;-80
2022/03/14 03:41:20;;;;;;;;;;;;;;;22.26;29.39;102671.38;104142;1316;62230;-84
2022/03/14 03:43:46;;;;;;;;;;;;;;;22.27;29.31;102670.65;104123;1316;74052;-88
2022/03/14 03:46:14;;;;;;;;;;;;;;;22.26;29.45;102665.46;104110;1316;62091;-84
2022/03/14 03:48:42;;;;;;;;;;;;;;;22.27;29.46;102669.20;104119;1316;62004;-86
2022/03/14 03:51:14;;;;;;;;;;;;;;;22.27;29.36;102672.08;104113;1316;62256;-88
2022/03/14 03:53:48;;;;;;;;;;;;;;;22.27;29.50;102680.88;104139;1316;74189;-83
2022/03/14 03:56:21;;;;;;;;;;;;;;;22.26;29.41;102681.61;104096;1316;75376;-81
2022/03/14 03:58:57;;;;;;;;;;;;;;;22.26;29.51;102685.90;104122;1316;62011;-84
2022/03/14 04:01:37;;;;;;;;;;;;;;;22.27;29.55;102688.75;104171;1316;62086;-84
2022/03/14 04:04:07;;;;;;;;;;;;;;;22.27;29.48;102690.70;104159;1317;73662;-89
2022/03/14 04:06:34;;;;;;;;;;;;;;;22.27;29.44;102693.94;104375;1310;75681;-83
2022/03/14 04:09:17;;;;;;;;;;;;;;;;;;;;;
2022/03/14 04:11:42;;;;;;;;;;;;;;;22.26;29.44;102700.08;104576;1308;61963;-80
2022/03/14 04:14:10;;;;;;;;;;;;;;;22.27;29.33;102705.42;104487;1308;62094;-86
2022/03/14 04:16:38;;;;;;;;;;;;;;;22.27;29.45;102704.89;104448;1310;75583;-81
2022/03/14 04:19:21;;;;;;;;;;;;;;;22.27;29.26;102705.95;104423;1311;62058;-86
2022/03/14 04:21:52;;;;;;;;;;;;;;;22.28;29.48;102712.75;104548;1308;62050;-83
2022/03/14 04:24:21;;;;;;;;;;;;;;;22.28;29.55;102715.23;104460;1308;73033;-88
2022/03/14 04:26:51;;;;;;;;;;;;;;;22.28;29.25;102715.27;104554;1308;76852;-84
2022/03/14 04:29:20;;;;;;;;;;;;;;;22.28;29.31;102714.35;104484;1308;62016;-84
2022/03/14 04:31:46;;;;;;;;;;;;;;;22.28;29.42;102718.11;104408;1308;62053;-89
2022/03/14 04:34:11;;;;;;;;;;;;;;;22.28;29.40;102720.26;104480;1309;62085;-83
2022/03/14 04:36:52;;;;;;;;;;;;;;;22.28;29.33;102723.49;104463;1308;75819;-82
2022/03/14 04:39:37;;;;;;;;;;;;;;;22.28;29.35;102726.36;104532;1308;62097;-83
2022/03/14 04:42:03;;;;;;;;;;;;;;;22.28;29.32;102726.02;104441;1308;61974;-84
2022/03/14 04:44:37;;;;;;;;;;;;;;;22.27;29.38;102731.05;104298;1314;62091;-85
2022/03/14 04:47:06;;;;;;;;;;;;;;;22.28;29.46;102738.01;104292;1314;76610;-85
2022/03/14 04:49:40;;;;;;;;;;;;;;;22.29;29.32;102739.98;104252;1314;62089;-85
2022/03/14 04:52:09;;;;;;;;;;;;;;;22.28;29.36;102741.59;104176;1314;62138;-82
2022/03/14 04:54:44;;;;;;;;;;;;;;;22.28;29.16;102743.05;104220;1314;73652;-85
2022/03/14 04:57:31;;;;;;;;;;;;;;;22.28;29.15;102745.55;104275;1314;75700;-85
2022/03/14 04:59:59;;;;;;;;;;;;;;;22.28;28.91;102748.43;104231;1314;62069;-85
2022/03/14 05:02:27;;;;;;;;;;;;;;;22.27;28.73;102749.89;104261;1314;62001;-89
2022/03/14 05:05:02;;;;;;;;;;;;;;;22.27;28.72;102751.16;104139;1314;72887;-83
2022/03/14 05:07:47;;;;;;;;;;;;;;;;;;;;;
2022/03/14 05:10:15;;;;;;;;;;;;;;;22.25;28.40;102756.64;104298;1314;62153;-83
2022/03/14 05:12:53;;;;;;;;;;;;;;;22.23;28.17;102761.04;104304;1314;62074;-86
2022/03/14 05:15:26;;;;;;;;;;;;;;;22.21;28.09;102767.41;104254;1311;72288;-85
2022/03/14 05:18:01;;;;;;;;;;;;;;;22.19;28.05;102769.48;104564;1306;76602;-82
2022/03/14 05:20:27;;;;;;;;;;;;;;;22.18;28.12;102773.83;104624;1306;61989;-84
2022/03/14 05:22:53;;;;;;;;;;;;;;;22.17;28.01;102776.35;104649;1306;62077;-82
2022/03/14 05:25:19;;;;;;;;;;;;;;;22.17;27.77;102775.29;104425;1309;62089;-84
2022/03/14 05:28:08;;;;;;;;;;;;;;;22.16;27.70;102779.63;104481;1306;76479;-83
2022/03/14 05:30:43;;;;;;;;;;;;;;;22.16;27.68;102782.52;104569;1309;62078;-84
2022/03/14 05:33:08;;;;;;;;;;;;;;;22.15;27.67;102780.92;104433;1306;61990;-86
2022/03/14 05:35:34;;;;;;;;;;;;;;;22.16;27.50;102785.04;104448;1306;62098;-85
2022/03/14 05:37:59;;;;;;;;;;;;;;;22.16;27.33;102785.91;104401;1309;62188;-82
2022/03/14 05:40:25;;;;;;;;;;;;;;;22.16;27.33;102792.39;104400;1307;59878;-83
2022/03/14 05:42:51;;;;;;;;;;;;;;;22.15;27.10;102794.58;104393;1309;61942;-81
2022/03/14 05:45:17;;;;;;;;;;;;;;;22.13;27.13;102795.04;104362;1309;62106;-83
2022/03/14 05:47:42;;;;;;;;;;;;;;;22.11;27.06;102794.01;104404;1309;72211;-81
2022/03/14 05:50:08;;;;;;;;;;;;;;;22.09;27.04;102795.00;104336;1308;62150;-82
2022/03/14 05:52:34;;;;;;;;;;;;;;;22.07;27.01;102802.99;104358;1308;62111;-84
2022/03/14 05:54:59;;;;;;;;;;;;;;;22.04;26.73;102806.90;104213;1309;62117;-80
2022/03/14 05:57:25;;;;;;;;;;;;;;;22.01;26.68;102806.68;104395;1309;61075;-83
2022/03/14 05:59:50;;;;;;;;;;;;;;;21.96;26.80;102807.59;104430;1309;60826;-81
2022/03/14 06:02:22;;;;;;;;;;;;;;;21.91;26.84;102812.84;104180;1307;62030;-81
2022/03/14 06:04:49;;;;;;;;;;;;;;;21.85;27.06;102810.23;104484;1307;62155;-81
2022/03/14 06:07:14;;;;;;;;;;;;;;;21.79;26.89;102803.85;104335;1308;61543;-81
2022/03/14 06:09:40;;;;;;;;;;;;;;;21.74;26.53;102812.48;104533;1307;62782;-81
2022/03/14 06:12:06;;;;;;;;;;;;;;;21.69;26.58;102817.53;104254;1306;60237;-81
2022/03/14 06:14:32;;;;;;;;;;;;;;;21.67;26.39;102816.89;104352;1308;62133;-81
2022/03/14 06:16:57;;;;;;;;;;;;;;;21.67;26.29;102817.09;104212;1308;62237;-80
2022/03/14 06:19:23;;;;;;;;;;;;;;;21.67;26.06;102817.23;104382;1308;62043;-83
2022/03/14 06:21:50;;;;;;;;;;;;;;;21.69;26.17;102819.84;104457;1308;73754;-81
2022/03/14 06:24:16;;;;;;;;;;;;;;;21.73;26.21;102825.58;104359;1309;76535;-81
2022/03/14 06:26:43;;;;;;;;;;;;;;;21.79;25.90;102821.59;104376;1308;62203;-81
2022/03/14 06:29:08;;;;;;;;;;;;;;;21.82;25.98;102823.76;104187;1308;62226;-81
2022/03/14 06:31:34;;;;;;;;;;;;;;;21.86;25.88;102836.34;104274;1309;62256;-80
2022/03/14 06:33:59;;;;;;;;;;;;;;;21.87;25.92;102834.48;104342;1309;62097;-81
2022/03/14 06:36:28;;;;;;;;;;;;;;;21.88;25.88;102837.88;104295;1309;61007;-81
2022/03/14 06:38:56;;;;;;;;;;;;;;;21.87;25.93;102841.32;104267;1309;62098;-81
2022/03/14 06:41:23;;;;;;;;;;;;;;;21.85;26.09;102846.95;104470;1308;61561;-82
2022/03/14 06:43:49;;;;;;;;;;;;;;;21.83;26.02;102847.40;104306;1309;60177;-81
2022/03/14 06:46:15;;;;;;;;;;;;;;;21.81;25.98;102852.88;104330;1309;62127;-81
2022/03/14 06:48:41;;;;;;;;;;;;;;;21.77;25.75;102853.92;103900;1308;644435;-81
2022/03/14 06:51:07;;;;;;;;;;;;;;;21.73;25.69;102856.22;104354;1309;62027;-81
2022/03/14 06:53:32;;;;;;;;;;;;;;;21.70;25.49;102855.33;104480;1307;59965;-81
2022/03/14 06:55:57;;;;;;;;;;;;;;;21.60;25.38;102858.93;104405;1309;62161;-81
2022/03/14 06:58:24;;;;;;;;;;;;;;;21.45;25.34;102863.96;104367;1309;76737;-81
2022/03/14 07:00:50;;;;;;;;;;;;;;;21.37;25.41;102864.30;104079;1309;61046;-80
2022/03/14 07:03:16;;;;;;;;;;;;;;;21.35;25.72;102864.73;104402;1307;60514;-81
2022/03/14 07:05:43;;;;;;;;;;;;;;;21.36;25.61;102863.44;103413;1309;64741;-82
2022/03/14 07:08:09;;;;;;;;;;;;;;;21.37;25.43;102860.90;103672;1310;62235;-81
2022/03/14 07:10:36;;;;;;;;;;;;;;;21.38;25.44;102862.09;105127;1308;60075;-80
2022/03/14 07:13:01;;;;;;;;;;;;;;;21.40;25.60;102859.52;105101;1309;60074;-80
2022/03/14 07:15:27;;;;;;;;;;;;;;;21.44;25.51;102858.66;105155;1309;60874;-80
2022/03/14 07:17:52;;;;;;;;;;;;;;;21.50;25.52;102860.92;105294;1307;60396;-80
2022/03/14 07:20:18;;;;;;;;;;;;;;;21.56;25.60;102861.23;105162;1309;59497;-80
2022/03/14 07:22:53;;;;;;;;;;;;;;;21.64;25.56;102861.66;105083;1308;60856;-80
2022/03/14 07:25:19;;;;;;;;;;;;;;;21.70;25.65;102869.09;104729;1309;61356;-84
2022/03/14 07:27:45;;;;;;;;;;;;;;;21.74;25.64;102871.26;104790;1308;61942;-82
2022/03/14 07:30:10;;;;;;;;;;;;;;;21.74;25.25;102869.28;104258;1308;62178;-81
2022/03/14 07:32:36;;;;;;;;;;;;;;;21.72;25.28;102867.56;104352;1308;60784;-81
2022/03/14 07:35:01;;;;;;;;;;;;;;;21.70;25.13;102870.33;104317;1308;62162;-80
2022/03/14 07:37:27;;;;;;;;;;;;;;;21.67;25.34;102871.55;104504;1308;62075;-81
2022/03/14 07:39:52;;;;;;;;;;;;;;;21.63;25.08;102874.40;104515;1308;62113;-81
2022/03/14 07:42:17;;;;;;;;;;;;;;;21.59;25.14;102876.17;104139;1309;62382;-82
2022/03/14 07:44:43;;;;;;;;;;;;;;;21.57;25.20;102878.95;104249;1309;62124;-81
2022/03/14 07:47:10;;;;;;;;;;;;;;;21.55;25.23;102879.75;104299;1308;63986;-82
2022/03/14 07:49:36;;;;;;;;;;;;;;;21.52;25.23;102882.70;103916;1309;61727;-80
2022/03/14 07:52:02;;;;;;;;;;;;;;;21.50;25.25;102886.37;103836;1309;62270;-81
2022/03/14 07:54:27;;;;;;;;;;;;;;;21.26;24.87;102893.02;103641;1309;62181;-82
2022/03/14 07:56:53;;;;;;;;;;;;;;;21.02;24.84;102894.48;104397;1308;60133;-81
2022/03/14 07:59:19;;;;;;;;;;;;;;;20.49;24.71;102897.30;104433;1307;62126;-84
2022/03/14 08:01:45;;;;;;;;;;;;;;;20.39;25.18;102897.27;104376;1309;62115;-81
2022/03/14 08:04:10;;;;;;;;;;;;;;;20.39;25.13;102900.50;104361;1309;60619;-82
2022/03/14 08:06:41;;;;;;;;;;;;;;;20.40;25.47;102898.33;104209;1308;60336;-80
2022/03/14 08:09:07;;;;;;;;;;;;;;;20.49;25.40;102900.16;104408;1309;61537;-81
2022/03/14 08:11:33;;;;;;;;;;;;;;;20.60;25.41;102903.34;105344;1307;60354;-82
2022/03/14 08:13:59;;;;;;;;;;;;;;;20.70;25.37;102901.21;105337;1308;60023;-81
2022/03/14 08:16:25;;;;;;;;;;;;;;;20.77;25.36;102900.96;105276;1308;60500;-82
2022/03/14 08:18:51;;;;;;;;;;;;;;;20.84;25.29;102899.83;105168;1307;60758;-81
2022/03/14 08:21:16;;;;;;;;;;;;;;;20.93;25.28;102904.12;105180;1308;60130;-81
2022/03/14 08:23:41;;;;;;;;;;;;;;;20.99;25.28;102905.35;104635;1309;62099;-81
2022/03/14 08:26:07;;;;;;;;;;;;;;;21.05;25.36;102903.34;104400;1309;61527;-82
2022/03/14 08:28:34;;;;;;;;;;;;;;;21.11;25.38;102908.49;104570;1308;62019;-82
2022/03/14 08:31:01;;;;;;;;;;;;;;;21.16;25.35;102907.95;104384;1308;60541;-81
2022/03/14 08:33:28;;;;;;;;;;;;;;;21.20;25.34;102910.63;104352;1308;60869;-82
2022/03/14 08:35:59;;;;;;;;;;;;;;;21.26;25.30;102908.80;105257;1309;72565;-81
2022/03/14 08:38:24;;;;;;;;;;;;;;;21.29;25.26;102905.27;105076;1308;76667;-82
2022/03/14 08:40:49;;;;;;;;;;;;;;;21.34;25.39;102903.83;104360;1307;62151;-82
2022/03/14 08:43:15;;;;;;;;;;;;;;;21.37;25.47;102903.52;104455;1307;60285;-82
2022/03/14 08:45:43;;;;;;;;;;;;;;;21.41;25.44;102902.66;104299;1309;62017;-82
2022/03/14 08:48:10;;;;;;;;;;;;;;;21.43;25.30;102897.56;104244;1308;62116;-83
2022/03/14 08:50:37;;;;;;;;;;;;;;;21.46;25.51;102904.77;104336;1308;60966;-82
2022/03/14 08:53:04;;;;;;;;;;;;;;;21.45;25.08;102903.92;103922;1309;62309;-82
2022/03/14 08:55:30;;;;;;;;;;;;;;;21.15;25.02;102903.83;104002;1308;60985;-82
2022/03/14 08:58:16;;;;;;;;;;;;;;;20.99;25.21;102903.36;104177;1309;74347;-81
2022/03/14 09:00:44;;;;;;;;;;;;;;;20.95;25.29;102902.27;104253;1307;61992;-83
2022/03/14 09:03:09;;;;;;;;;;;;;;;20.96;25.25;102894.00;104487;1308;62064;-81
2022/03/14 09:05:35;;;;;;;;;;;;;;;20.95;25.21;102892.61;104320;1308;62544;-80
2022/03/14 09:08:01;;;;;;;;;;;;;;;20.88;25.32;102894.14;104440;1308;60952;-81
2022/03/14 09:10:26;;;;;;;;;;;;;;;20.82;25.32;102892.92;104438;1309;62063;-82
2022/03/14 09:12:52;;;;;;;;;;;;;;;20.84;25.54;102891.38;104468;1308;60152;-80
2022/03/14 09:15:17;;;;;;;;;;;;;;;20.87;25.32;102887.88;104377;1308;62025;-81
2022/03/14 09:17:46;;;;;;;;;;;;;;;20.91;25.53;102884.52;104275;1309;62140;-82
2022/03/14 09:20:15;;;;;;;;;;;;;;;20.97;25.60;102883.24;103888;1309;76387;-83
2022/03/14 09:22:43;;;;;;;;;;;;;;;21.01;25.55;102883.41;104493;1309;61873;-81
2022/03/14 09:25:09;;;;;;;;;;;;;;;21.04;25.49;102881.14;104209;1308;62185;-81
2022/03/14 09:27:36;;;;;;;;;;;;;;;21.07;25.48;102882.66;104325;1308;62087;-82
2022/03/14 09:30:01;;;;;;;;;;;;;;;21.03;25.29;102883.71;104222;1309;62080;-82
2022/03/14 09:32:27;;;;;;;;;;;;;;;20.99;25.32;102882.06;104426;1308;62081;-80
2022/03/14 09:34:57;;;;;;;;;;;;;;;20.98;25.06;102888.02;104271;1309;62233;-82
2022/03/14 09:37:22;;;;;;;;;;;;;;;20.97;25.25;102888.58;104143;1308;72905;-84
2022/03/14 09:39:48;;;;;;;;;;;;;;;20.98;25.21;102890.52;104285;1309;62183;-85
2022/03/14 09:42:16;;;;;;;;;;;;;;;21.01;25.37;102886.13;104210;1309;62158;-81
2022/03/14 09:44:42;;;;;;;;;;;;;;;21.02;25.36;102888.05;104329;1308;60941;-82
2022/03/14 09:47:08;;;;;;;;;;;;;;;21.01;25.16;102887.73;104280;1308;62731;-80
2022/03/14 09:49:36;;;;;;;;;;;;;;;21.01;25.20;102891.14;103976;1308;62329;-82
2022/03/14 09:52:02;;;;;;;;;;;;;;;21.00;24.96;102891.16;104321;1309;62120;-80
2022/03/14 09:54:28;;;;;;;;;;;;;;;20.98;25.17;102885.16;104048;1308;62445;-83
2022/03/14 09:56:56;;;;;;;;;;;;;;;20.91;24.92;102885.04;104345;1308;62140;-82
2022/03/14 09:59:21;;;;;;;;;;;;;;;20.88;24.99;102879.27;104616;1307;60764;-81
2022/03/14 10:01:47;;;;;;;;;;;;;;;20.85;24.88;102879.02;104326;1309;62127;-84
2022/03/14 10:04:16;;;;;;;;;;;;;;;20.67;24.81;102876.45;104370;1309;62087;-80
2022/03/14 10:06:41;;;;;;;;;;;;;;;20.57;24.89;102874.27;104346;1308;73234;-80
2022/03/14 10:09:07;;;;;;;;;;;;;;;20.51;25.00;102870.77;104353;1308;62113;-81
2022/03/14 10:11:33;;;;;;;;;;;;;;;20.51;24.92;102866.64;104425;1307;60762;-83
2022/03/14 10:14:11;;;;;;;;;;;;;;;20.55;25.03;102870.80;104236;1309;60641;-81
2022/03/14 10:16:37;;;;;;;;;;;;;;;20.58;24.91;102870.84;104176;1308;74153;-81
2022/03/14 10:19:02;;;;;;;;;;;;;;;20.61;24.95;102867.52;104530;1308;62595;-82
2022/03/14 10:21:39;;;;;;;;;;;;;;;20.64;24.99;102867.08;104365;1308;62134;-81
2022/03/14 10:24:11;;;;;;;;;;;;;;;20.67;24.83;102867.15;104295;1308;62146;-81
2022/03/14 10:26:39;;;;;;;;;;;;;;;20.70;24.83;102869.71;104348;1308;71705;-82
2022/03/14 10:29:10;;;;;;;;;;;;;;;20.74;24.96;102866.73;104741;1309;76854;-81
2022/03/14 10:31:45;;;;;;;;;;;;;;;20.75;24.90;102872.20;103942;1309;60535;-81
2022/03/14 10:34:14;;;;;;;;;;;;;;;20.79;25.15;102870.84;103766;1308;63418;-81
2022/03/14 10:36:42;;;;;;;;;;;;;;;20.85;25.22;102869.55;103852;1308;72668;-80
2022/03/14 10:39:15;;;;;;;;;;;;;;;20.92;25.11;102866.94;103781;1308;76243;-80
2022/03/14 10:41:40;;;;;;;;;;;;;;;20.97;24.97;102864.95;103937;1308;61994;-81
2022/03/14 10:44:07;;;;;;;;;;;;;;;21.03;25.19;102865.25;103935;1309;62355;-82
2022/03/14 10:46:33;;;;;;;;;;;;;;;21.08;25.30;102860.60;104074;1308;62084;-83
2022/03/14 10:48:59;;;;;;;;;;;;;;;21.14;25.54;102861.29;103897;1308;62153;-80
2022/03/14 10:51:24;;;;;;;;;;;;;;;21.18;25.42;102860.19;103808;1309;62175;-81
2022/03/14 10:53:50;;;;;;;;;;;;;;;21.22;25.34;102858.98;103593;1309;62238;-83
2022/03/14 10:56:17;;;;;;;;;;;;;;;21.06;25.01;102861.58;103503;1307;62165;-80
2022/03/14 10:58:44;;;;;;;;;;;;;;;20.83;25.07;102859.95;103455;1309;62556;-80
2022/03/14 11:01:10;;;;;;;;;;;;;;;20.70;24.90;102852.18;103315;1308;62075;-81
2022/03/14 11:03:36;;;;;;;;;;;;;;;20.65;24.84;102851.45;103446;1306;62204;-80
2022/03/14 11:06:22;;;;;;;;;;;;;;;20.62;24.84;102849.61;103495;1309;62195;-81
2022/03/14 11:08:48;;;;;;;;;;;;;;;20.63;24.67;102846.86;103640;1307;75555;-81
2022/03/14 11:11:22;;;;;;;;;;;;;;;20.64;24.63;102844.69;103810;1308;62302;-80
2022/03/14 11:13:48;;;;;;;;;;;;;;;20.63;24.61;102846.70;104243;1306;64289;-80
2022/03/14 11:16:24;;;;;;;;;;;;;;;20.63;24.64;102845.80;105107;1308;60490;-81
2022/03/14 11:18:50;;;;;;;;;;;;;;;20.65;24.61;102837.88;105029;1309;75744;-80
2022/03/14 11:21:16;;;;;;;;;;;;;;;20.66;24.65;102838.37;104801;1309;62134;-80
2022/03/14 11:23:42;;;;;;;;;;;;;;;20.71;24.77;102836.60;103957;1311;62106;-80
2022/03/14 11:26:08;;;;;;;;;;;;;;;20.77;24.59;102831.16;103919;1310;62104;-81
2022/03/14 11:28:35;;;;;;;;;;;;;;;20.85;24.90;102834.11;104340;1309;61948;-80
2022/03/14 11:31:01;;;;;;;;;;;;;;;20.92;24.61;102834.54;104273;1309;62564;-81
2022/03/14 11:33:27;;;;;;;;;;;;;;;20.98;24.63;102831.45;104570;1309;62108;-80
2022/03/14 11:35:52;;;;;;;;;;;;;;;21.02;24.66;102830.73;104275;1309;62006;-80
2022/03/14 11:38:18;;;;;;;;;;;;;;;21.08;24.63;102828.19;103990;1309;62108;-79
2022/03/14 11:40:44;;;;;;;;;;;;;;;21.11;24.69;102822.70;103943;1309;60973;-82
2022/03/14 11:43:10;;;;;;;;;;;;;;;21.15;24.57;102820.95;104358;1309;62102;-81
2022/03/14 11:45:36;;;;;;;;;;;;;;;21.19;24.60;102819.89;104443;1307;61995;-82
2022/03/14 11:48:05;;;;;;;;;;;;;;;21.23;24.69;102817.39;104452;1308;60214;-80
2022/03/14 11:50:46;;;;;;;;;;;;;;;21.26;24.73;102816.91;103911;1308;74496;-81
2022/03/14 11:53:31;;;;;;;;;;;;;;;21.10;24.46;102816.29;103722;1308;62098;-81
2022/03/14 11:55:58;;;;;;;;;;;;;;;21.00;24.60;102817.42;104053;1308;60450;-81
2022/03/14 11:58:42;;;;;;;;;;;;;;;20.95;24.55;102812.42;104174;1311;61912;-81
2022/03/14 12:01:18;;;;;;;;;;;;;;;20.88;24.43;102812.86;104157;1309;77265;-82
2022/03/14 12:03:50;;;;;;;;;;;;;;;20.77;24.23;102805.42;105152;1309;60262;-81
2022/03/14 12:06:17;;;;;;;;;;;;;;;20.71;24.03;102808.85;105255;1306;60523;-80
2022/03/14 12:08:45;;;;;;;;;;;;;;;20.70;24.27;102805.66;105272;1306;60479;-81
2022/03/14 12:11:31;;;;;;;;;;;;;;;20.71;24.24;102805.80;105098;1306;76771;-81
2022/03/14 12:13:56;;;;;;;;;;;;;;;20.72;24.33;102806.66;104476;1307;62208;-80
2022/03/14 12:16:34;;;;;;;;;;;;;;;20.73;24.23;102809.29;104336;1306;62988;-80
2022/03/14 12:19:23;;;;;;;;;;;;;;;20.74;24.28;102806.05;104546;1305;72679;-80
2022/03/14 12:21:52;;;;;;;;;;;;;;;20.75;24.11;102804.07;104607;1307;76549;-80
2022/03/14 12:24:24;;;;;;;;;;;;;;;20.75;24.20;102800.80;104599;1306;60611;-79
2022/03/14 12:26:49;;;;;;;;;;;;;;;20.77;24.20;102792.34;104255;1309;61889;-79
2022/03/14 12:29:34;;;;;;;;;;;;;;;20.81;24.15;102788.06;104087;1310;62162;-81
2022/03/14 12:32:21;;;;;;;;;;;;;;;20.85;24.18;102791.67;104072;1309;75477;-81
2022/03/14 12:35:04;;;;;;;;;;;;;;;20.86;24.16;102790.39;105486;1306;61119;-82
2022/03/14 12:37:35;;;;;;;;;;;;;;;20.87;24.10;102789.27;105113;1310;60098;-81
2022/03/14 12:40:01;;;;;;;;;;;;;;;20.87;24.01;102789.62;104124;1311;73675;-81
2022/03/14 12:42:26;;;;;;;;;;;;;;;20.86;24.15;102782.85;104081;1311;62352;-80